createdAt,value
2024-05-09T00:00:42.021Z,9.9800
2024-05-09T00:01:41.882Z,9.9234
2024-05-09T00:02:43.998Z,9.9177
2024-05-09T00:03:46.206Z,9.9315
2024-05-09T00:04:48.360Z,9.9368
2024-05-09T00:05:50.550Z,9.9004
2024-05-09T00:06:52.655Z,9.8601
2024-05-09T00:07:54.757Z,9.8789
2024-05-09T00:08:56.847Z,9.9079
2024-05-09T00:09:58.931Z,9.8973
2024-05-09T00:11:01.073Z,9.9200
2024-05-09T00:12:03.221Z,9.9217
2024-05-09T00:13:05.547Z,9.9078
2024-05-09T00:14:07.695Z,9.9659
2024-05-09T00:15:09.782Z,9.9232
2024-05-09T00:16:11.869Z,9.9202
2024-05-09T00:17:14.055Z,9.9125
2024-05-09T00:18:16.398Z,9.9019
2024-05-09T00:19:18.698Z,9.8887
2024-05-09T00:20:28.052Z,9.8950
2024-05-09T00:21:21.391Z,9.8674
2024-05-09T00:22:23.447Z,9.8819
2024-05-09T00:23:25.608Z,9.8796
2024-05-09T00:24:27.718Z,9.8566
2024-05-09T00:25:29.789Z,9.8536
2024-05-09T00:26:32.014Z,9.8480
2024-05-09T00:27:34.072Z,9.8295
2024-05-09T00:28:36.199Z,9.8095
2024-05-09T00:29:38.291Z,9.8053
2024-05-09T00:30:40.335Z,9.8084
2024-05-09T00:31:42.481Z,9.7653
2024-05-09T00:32:44.682Z,9.7678
2024-05-09T00:33:46.904Z,9.7691
2024-05-09T00:34:49.057Z,9.8049
2024-05-09T00:35:51.096Z,9.7809
2024-05-09T00:36:53.182Z,9.7844
2024-05-09T00:37:55.352Z,9.7984
2024-05-09T00:38:57.402Z,9.7934
2024-05-09T00:39:59.461Z,9.7611
2024-05-09T00:41:01.560Z,9.7404
2024-05-09T00:42:03.629Z,9.7218
2024-05-09T00:43:05.724Z,9.7139
2024-05-09T00:44:07.842Z,9.7367
2024-05-09T00:45:09.884Z,9.7260
2024-05-09T00:46:11.971Z,9.7272
2024-05-09T00:47:14.145Z,9.7437
2024-05-09T00:48:18.863Z,9.7499
2024-05-09T00:49:18.114Z,9.7967
2024-05-09T00:50:29.389Z,9.8216
2024-05-09T00:51:20.974Z,9.8104
2024-05-09T00:52:23.065Z,9.8550
2024-05-09T00:53:25.185Z,9.8559
2024-05-09T00:54:27.197Z,9.8714
2024-05-09T00:55:29.291Z,9.9160
2024-05-09T00:56:31.530Z,9.8921
2024-05-09T00:57:33.616Z,9.9042
2024-05-09T00:58:35.696Z,9.9044
2024-05-09T00:59:37.811Z,9.9527
2024-05-09T01:00:41.256Z,9.9379
2024-05-09T01:01:41.527Z,9.9548
2024-05-09T01:02:43.737Z,9.9497
2024-05-09T01:03:48.717Z,9.9518
2024-05-09T01:04:47.576Z,9.9770
2024-05-09T01:05:49.858Z,9.9855
2024-05-09T01:06:51.961Z,10.0022
2024-05-09T01:07:54.150Z,10.0245
2024-05-09T01:08:56.206Z,10.0077
2024-05-09T01:09:58.289Z,10.0497
2024-05-09T01:11:00.472Z,10.0114
2024-05-09T01:12:02.705Z,10.0611
2024-05-09T01:13:04.906Z,10.0442
2024-05-09T01:14:07.142Z,10.0455
2024-05-09T01:15:09.223Z,10.0547
2024-05-09T01:16:11.291Z,10.0196
2024-05-09T01:17:13.459Z,10.0769
2024-05-09T01:18:15.885Z,10.0395
2024-05-09T01:19:18.149Z,10.0611
2024-05-09T01:20:27.826Z,10.0893
2024-05-09T01:21:20.922Z,10.0622
2024-05-09T01:22:23.029Z,10.1345
2024-05-09T01:23:25.235Z,10.1392
2024-05-09T01:24:27.265Z,10.1265
2024-05-09T01:25:29.340Z,10.0813
2024-05-09T01:26:31.494Z,10.1005
2024-05-09T01:27:33.544Z,10.0779
2024-05-09T01:28:35.678Z,10.1100
2024-05-09T01:29:37.834Z,10.0844
2024-05-09T01:30:39.915Z,10.0595
2024-05-09T01:31:42.030Z,10.0496
2024-05-09T01:32:44.164Z,10.0638
2024-05-09T01:33:46.693Z,10.0305
2024-05-09T01:34:46.506Z,10.0832
2024-05-09T01:35:48.581Z,10.0993
2024-05-09T01:36:50.698Z,10.0992
2024-05-09T01:37:52.774Z,10.0701
2024-05-09T01:38:54.868Z,10.0628
2024-05-09T01:39:56.962Z,10.0578
2024-05-09T01:40:59.067Z,10.0732
2024-05-09T01:42:01.107Z,10.1016
2024-05-09T01:43:03.216Z,10.0659
2024-05-09T01:44:05.312Z,10.1163
2024-05-09T01:45:07.371Z,10.1309
2024-05-09T01:46:09.444Z,10.1258
2024-05-09T01:47:11.735Z,10.0629
2024-05-09T01:48:11.891Z,10.1147
2024-05-09T01:49:14.365Z,10.0906
2024-05-09T01:51:15.853Z,10.0822
2024-05-09T01:52:17.909Z,10.0867
2024-05-09T01:53:20.103Z,10.1374
2024-05-09T01:54:22.162Z,10.1473
2024-05-09T01:55:24.357Z,10.1764
2024-05-09T01:56:26.446Z,10.1962
2024-05-09T01:57:28.635Z,10.1170
2024-05-09T01:58:30.731Z,10.1033
2024-05-09T01:59:32.897Z,10.1144
2024-05-09T02:00:40.022Z,10.1599
2024-05-09T02:01:55.592Z,10.1368
2024-05-09T02:02:36.224Z,10.1464
2024-05-09T02:03:38.531Z,10.1567
2024-05-09T02:04:40.791Z,10.1640
2024-05-09T02:05:42.978Z,10.1845
2024-05-09T02:06:42.916Z,10.1968
2024-05-09T02:07:46.415Z,10.2271
2024-05-09T02:08:49.613Z,10.2214
2024-05-09T02:09:53.058Z,10.2199
2024-05-09T02:10:56.366Z,10.2000
2024-05-09T02:11:59.715Z,10.2001
2024-05-09T02:13:02.950Z,10.2053
2024-05-09T02:14:06.311Z,10.2071
2024-05-09T02:15:09.508Z,10.1825
2024-05-09T02:16:12.728Z,10.2312
2024-05-09T02:17:16.128Z,10.2208
2024-05-09T02:18:17.029Z,10.2532
2024-05-09T02:19:16.899Z,10.2458
2024-05-09T02:20:30.048Z,10.2139
2024-05-09T02:21:22.265Z,10.2044
2024-05-09T02:22:25.465Z,10.2341
2024-05-09T02:23:28.688Z,10.1893
2024-05-09T02:24:31.924Z,10.2065
2024-05-09T02:25:35.128Z,10.2177
2024-05-09T02:26:38.368Z,10.1920
2024-05-09T02:27:41.606Z,10.1967
2024-05-09T02:28:44.827Z,10.2074
2024-05-09T02:29:48.080Z,10.2500
2024-05-09T02:30:51.272Z,10.2206
2024-05-09T02:31:54.574Z,10.2288
2024-05-09T02:32:57.884Z,10.2596
2024-05-09T02:34:01.499Z,10.1942
2024-05-09T02:35:01.572Z,10.2138
2024-05-09T02:36:04.946Z,10.2709
2024-05-09T02:37:08.177Z,10.2427
2024-05-09T02:38:11.491Z,10.2992
2024-05-09T02:39:11.436Z,10.2299
2024-05-09T02:40:18.119Z,10.2279
2024-05-09T02:41:16.794Z,10.2513
2024-05-09T02:42:18.115Z,10.2035
2024-05-09T02:43:21.279Z,10.1973
2024-05-09T02:44:24.591Z,10.1804
2024-05-09T02:45:27.833Z,10.1780
2024-05-09T02:46:27.905Z,10.1938
2024-05-09T02:47:31.183Z,10.2105
2024-05-09T02:48:34.561Z,10.2234
2024-05-09T02:49:37.818Z,10.2616
2024-05-09T02:50:41.297Z,10.2114
2024-05-09T02:51:41.176Z,10.2164
2024-05-09T02:52:44.381Z,10.1859
2024-05-09T02:53:47.646Z,10.1583
2024-05-09T02:54:50.943Z,10.1509
2024-05-09T02:55:54.158Z,10.1355
2024-05-09T02:56:57.342Z,10.1453
2024-05-09T02:58:00.587Z,10.1815
2024-05-09T02:59:03.875Z,10.1444
2024-05-09T03:00:12.101Z,10.1595
2024-05-09T03:01:09.175Z,10.1174
2024-05-09T03:02:12.498Z,10.1463
2024-05-09T03:03:16.080Z,10.1476
2024-05-09T03:04:16.151Z,10.1663
2024-05-09T03:05:19.541Z,10.1251
2024-05-09T03:06:22.725Z,10.1064
2024-05-09T03:07:26.220Z,10.0413
2024-05-09T03:08:26.164Z,10.0281
2024-05-09T03:09:29.337Z,10.0473
2024-05-09T03:10:35.852Z,10.0988
2024-05-09T03:11:34.815Z,10.1124
2024-05-09T03:12:37.859Z,10.1153
2024-05-09T03:13:35.152Z,10.0911
2024-05-09T03:14:38.352Z,10.0948
2024-05-09T03:15:41.618Z,10.0807
2024-05-09T03:16:44.823Z,10.0761
2024-05-09T03:17:48.162Z,10.0730
2024-05-09T03:18:48.041Z,10.0889
2024-05-09T03:19:51.300Z,10.0623
2024-05-09T03:20:54.590Z,10.0742
2024-05-09T03:21:57.825Z,10.0835
2024-05-09T03:23:01.053Z,10.0506
2024-05-09T03:24:04.299Z,10.0718
2024-05-09T03:25:05.563Z,10.1049
2024-05-09T03:26:08.856Z,10.0632
2024-05-09T03:27:12.020Z,10.1056
2024-05-09T03:28:15.312Z,10.0735
2024-05-09T03:29:15.344Z,10.1113
2024-05-09T03:30:29.552Z,10.0604
2024-05-09T03:31:20.731Z,10.0790
2024-05-09T03:32:24.121Z,10.0502
2024-05-09T03:33:27.518Z,10.0304
2024-05-09T03:34:30.948Z,10.0005
2024-05-09T03:35:34.207Z,10.0082
2024-05-09T03:36:37.394Z,10.0239
2024-05-09T03:37:40.599Z,9.9988
2024-05-09T03:38:43.876Z,10.0065
2024-05-09T03:39:47.046Z,10.0470
2024-05-09T03:40:50.890Z,9.9982
2024-05-09T03:41:51.020Z,9.9637
2024-05-09T03:42:54.230Z,9.9879
2024-05-09T03:43:58.354Z,9.9755
2024-05-09T03:44:58.052Z,9.9917
2024-05-09T03:46:01.284Z,9.9972
2024-05-09T03:47:04.537Z,10.0217
2024-05-09T03:48:08.096Z,10.0089
2024-05-09T03:49:08.088Z,10.0474
2024-05-09T03:50:18.316Z,10.0706
2024-05-09T03:51:13.549Z,10.0186
2024-05-09T03:52:16.790Z,10.0310
2024-05-09T03:53:20.144Z,10.0200
2024-05-09T03:54:23.317Z,10.0558
2024-05-09T03:55:26.544Z,10.0570
2024-05-09T03:56:29.776Z,10.0230
2024-05-09T03:57:32.996Z,10.0601
2024-05-09T03:58:36.231Z,10.0289
2024-05-09T03:59:39.588Z,10.0395
2024-05-09T04:00:42.845Z,10.0389
2024-05-09T04:01:46.196Z,10.0000
2024-05-09T04:02:49.513Z,10.0128
2024-05-09T04:03:52.845Z,10.0414
2024-05-09T04:04:56.116Z,10.0229
2024-05-09T04:05:59.375Z,10.0473
2024-05-09T04:07:02.563Z,10.0408
2024-05-09T04:08:05.799Z,10.0405
2024-05-09T04:09:05.850Z,10.0664
2024-05-09T04:10:13.885Z,10.0616
2024-05-09T04:11:11.232Z,10.1279
2024-05-09T04:12:14.635Z,10.1160
2024-05-09T04:13:17.843Z,10.1220
2024-05-09T04:14:21.118Z,10.1494
2024-05-09T04:15:24.355Z,10.1788
2024-05-09T04:16:24.416Z,10.1930
2024-05-09T04:17:27.740Z,10.1639
2024-05-09T04:18:31.091Z,10.1927
2024-05-09T04:19:34.535Z,10.2335
2024-05-09T04:20:40.364Z,10.2227
2024-05-09T04:21:40.951Z,10.2522
2024-05-09T04:22:44.267Z,10.2028
2024-05-09T04:23:47.547Z,10.2369
2024-05-09T04:24:50.786Z,10.2034
2024-05-09T04:25:54.839Z,10.2319
2024-05-09T04:26:54.558Z,10.2070
2024-05-09T04:27:57.830Z,10.1803
2024-05-09T04:29:01.086Z,10.1843
2024-05-09T04:30:06.098Z,10.2396
2024-05-09T04:31:07.459Z,10.1915
2024-05-09T04:32:10.817Z,10.1617
2024-05-09T04:33:14.943Z,10.1712
2024-05-09T04:34:15.216Z,10.1798
2024-05-09T04:35:18.501Z,10.1841
2024-05-09T04:36:21.711Z,10.1953
2024-05-09T04:37:24.976Z,10.1599
2024-05-09T04:38:28.221Z,10.1957
2024-05-09T04:39:31.438Z,10.2116
2024-05-09T04:40:36.698Z,10.2512
2024-05-09T04:41:37.281Z,10.2793
2024-05-09T04:42:40.485Z,10.2458
2024-05-09T04:43:43.712Z,10.2933
2024-05-09T04:44:46.953Z,10.2584
2024-05-09T04:45:50.180Z,10.2534
2024-05-09T04:46:53.512Z,10.3035
2024-05-09T04:47:56.966Z,10.2908
2024-05-09T04:48:56.915Z,10.3358
2024-05-09T04:50:00.203Z,10.3583
2024-05-09T04:51:03.709Z,10.3267
2024-05-09T04:52:03.498Z,10.2895
2024-05-09T04:53:07.613Z,10.2506
2024-05-09T04:54:10.738Z,10.3341
2024-05-09T04:55:09.178Z,10.2850
2024-05-09T04:56:12.495Z,10.2751
2024-05-09T04:57:15.708Z,10.2645
2024-05-09T04:58:18.906Z,10.2938
2024-05-09T04:59:22.296Z,10.3200
2024-05-09T05:00:32.044Z,10.2985
2024-05-09T05:01:27.677Z,10.3808
2024-05-09T05:02:30.951Z,10.3099
2024-05-09T05:03:34.292Z,10.2997
2024-05-09T05:04:37.635Z,10.3184
2024-05-09T05:05:41.361Z,10.3313
2024-05-09T05:06:41.326Z,10.3168
2024-05-09T05:07:44.592Z,10.3770
2024-05-09T05:08:47.823Z,10.3911
2024-05-09T05:09:51.039Z,10.3354
2024-05-09T05:10:54.437Z,10.2663
2024-05-09T05:11:57.831Z,10.3409
2024-05-09T05:13:01.083Z,10.2994
2024-05-09T05:14:04.394Z,10.3547
2024-05-09T05:15:07.580Z,10.3872
2024-05-09T05:16:10.802Z,10.3642
2024-05-09T05:17:14.091Z,10.4089
2024-05-09T05:18:17.463Z,10.4541
2024-05-09T05:19:17.839Z,10.4418
2024-05-09T05:20:27.038Z,10.4649
2024-05-09T05:21:19.861Z,10.4248
2024-05-09T05:22:23.094Z,10.4280
2024-05-09T05:23:26.409Z,10.5246
2024-05-09T05:24:29.642Z,10.5271
2024-05-09T05:25:32.865Z,10.5592
2024-05-09T05:26:36.167Z,10.5543
2024-05-09T05:27:39.417Z,10.5811
2024-05-09T05:28:42.652Z,10.6813
2024-05-09T05:29:45.915Z,10.6548
2024-05-09T05:30:49.126Z,10.6476
2024-05-09T05:31:52.443Z,10.6749
2024-05-09T05:32:55.889Z,10.5689
2024-05-09T05:33:55.923Z,10.5045
2024-05-09T05:34:59.213Z,10.4948
2024-05-09T05:36:02.450Z,10.5319
2024-05-09T05:37:05.648Z,10.6523
2024-05-09T05:38:09.004Z,10.5860
2024-05-09T05:39:09.161Z,10.5218
2024-05-09T05:40:20.629Z,10.6237
2024-05-09T05:41:14.608Z,10.6296
2024-05-09T05:42:17.850Z,10.5917
2024-05-09T05:43:21.067Z,10.4516
2024-05-09T05:44:24.364Z,10.5080
2024-05-09T05:45:27.609Z,10.5731
2024-05-09T05:46:30.841Z,10.5249
2024-05-09T05:47:34.323Z,10.6350
2024-05-09T05:48:34.331Z,10.6902
2024-05-09T05:49:34.290Z,10.6844
2024-05-09T05:50:38.591Z,10.6948
2024-05-09T05:51:38.616Z,10.6784
2024-05-09T05:52:41.841Z,10.5774
2024-05-09T05:53:45.137Z,10.5949
2024-05-09T05:54:48.348Z,10.6534
2024-05-09T05:55:51.628Z,10.6568
2024-05-09T05:56:54.895Z,10.6237
2024-05-09T05:57:58.129Z,10.5752
2024-05-09T05:59:01.425Z,10.5682
2024-05-09T06:00:09.233Z,10.5230
2024-05-09T06:01:06.814Z,10.6004
2024-05-09T06:02:10.236Z,10.5827
2024-05-09T06:03:14.290Z,10.6882
2024-05-09T06:04:14.322Z,10.6252
2024-05-09T06:05:17.605Z,10.6594
2024-05-09T06:06:21.024Z,10.6308
2024-05-09T06:07:24.198Z,10.6090
2024-05-09T06:08:30.256Z,10.6817
2024-05-09T06:09:30.374Z,10.7733
2024-05-09T06:10:38.742Z,10.8895
2024-05-09T06:11:35.803Z,10.9270
2024-05-09T06:12:39.124Z,10.8777
2024-05-09T06:13:42.338Z,10.9284
2024-05-09T06:14:45.573Z,10.9269
2024-05-09T06:15:48.976Z,10.8799
2024-05-09T06:16:54.057Z,10.8983
2024-05-09T06:17:54.595Z,10.8592
2024-05-09T06:18:54.602Z,10.9655
2024-05-09T06:19:54.884Z,11.0948
2024-05-09T06:20:55.091Z,11.1163
2024-05-09T06:21:58.308Z,11.0582
2024-05-09T06:23:01.671Z,11.2210
2024-05-09T06:24:06.778Z,11.2557
2024-05-09T06:25:06.536Z,11.1947
2024-05-09T06:26:09.845Z,11.3245
2024-05-09T06:27:13.038Z,11.4131
2024-05-09T06:28:16.363Z,11.3643
2024-05-09T06:29:19.601Z,11.4157
2024-05-09T06:30:30.115Z,11.5478
2024-05-09T06:31:25.005Z,11.5981
2024-05-09T06:32:28.348Z,11.5576
2024-05-09T06:33:31.764Z,11.5863
2024-05-09T06:34:35.082Z,11.7653
2024-05-09T06:35:38.521Z,11.7380
2024-05-09T06:36:38.331Z,11.8634
2024-05-09T06:37:41.615Z,12.0620
2024-05-09T06:38:44.931Z,12.2538
2024-05-09T06:39:48.145Z,12.0787
2024-05-09T06:40:51.427Z,12.0126
2024-05-09T06:41:51.388Z,11.9619
2024-05-09T06:42:54.621Z,12.0014
2024-05-09T06:43:57.962Z,11.8304
2024-05-09T06:45:01.152Z,11.9516
2024-05-09T06:46:04.376Z,12.1993
2024-05-09T06:47:07.785Z,12.0818
2024-05-09T06:48:11.267Z,12.1375
2024-05-09T06:49:11.412Z,12.2917
2024-05-09T06:50:20.153Z,12.4424
2024-05-09T06:51:13.742Z,12.3673
2024-05-09T06:52:16.962Z,12.4325
2024-05-09T06:53:20.380Z,12.7383
2024-05-09T06:54:23.711Z,12.4023
2024-05-09T06:55:26.939Z,12.2072
2024-05-09T06:56:30.358Z,12.2498
2024-05-09T06:57:33.561Z,12.3413
2024-05-09T06:58:36.908Z,12.4055
2024-05-09T06:59:40.268Z,12.4210
2024-05-09T07:00:43.633Z,12.4216
2024-05-09T07:01:46.920Z,12.5839
2024-05-09T07:02:50.349Z,12.4693
2024-05-09T07:03:53.663Z,12.1983
2024-05-09T07:04:57.018Z,12.2492
2024-05-09T07:05:56.938Z,12.4218
2024-05-09T07:07:00.212Z,12.3217
2024-05-09T07:08:03.526Z,12.2447
2024-05-09T07:09:06.768Z,12.2805
2024-05-09T07:10:14.990Z,12.2309
2024-05-09T07:11:12.229Z,12.1567
2024-05-09T07:12:15.539Z,12.1636
2024-05-09T07:13:18.890Z,12.2591
2024-05-09T07:14:22.194Z,12.2222
2024-05-09T07:15:25.395Z,12.1480
2024-05-09T07:16:28.622Z,12.0683
2024-05-09T07:17:32.088Z,12.0178
2024-05-09T07:18:35.508Z,12.0820
2024-05-09T07:19:35.515Z,11.9878
2024-05-09T07:20:38.807Z,11.9703
2024-05-09T07:21:42.059Z,12.0407
2024-05-09T07:22:45.410Z,11.9918
2024-05-09T07:23:48.723Z,11.9474
2024-05-09T07:24:52.031Z,11.9323
2024-05-09T07:25:55.321Z,12.0709
2024-05-09T07:26:58.540Z,12.1235
2024-05-09T07:28:01.899Z,12.2857
2024-05-09T07:29:05.161Z,12.2603
2024-05-09T07:30:09.424Z,12.4819
2024-05-09T07:31:11.277Z,12.4846
2024-05-09T07:32:14.730Z,12.2695
2024-05-09T07:33:14.757Z,12.2910
2024-05-09T07:34:14.830Z,12.4457
2024-05-09T07:35:14.664Z,12.4886
2024-05-09T07:36:17.851Z,12.4420
2024-05-09T07:37:21.075Z,12.5401
2024-05-09T07:38:24.490Z,12.5717
2024-05-09T07:39:27.731Z,12.6119
2024-05-09T07:40:35.966Z,12.5589
2024-05-09T07:41:33.385Z,12.3859
2024-05-09T07:42:36.569Z,12.3679
2024-05-09T07:43:39.804Z,12.3185
2024-05-09T07:44:43.165Z,12.2651
2024-05-09T07:47:48.609Z,12.4864
2024-05-09T07:49:13.573Z,12.4975
2024-05-09T07:52:45.973Z,12.5183
2024-05-09T07:53:22.088Z,12.4615
2024-05-09T07:53:36.082Z,12.5639
2024-05-09T07:54:04.412Z,12.3280
2024-05-09T07:55:04.708Z,12.4136
2024-05-09T07:56:09.359Z,12.5545
2024-05-09T07:57:09.798Z,12.7261
2024-05-09T07:58:13.151Z,12.4898
2024-05-09T07:59:16.433Z,12.4582
2024-05-09T08:00:23.734Z,12.6919
2024-05-09T08:01:22.062Z,12.8901
2024-05-09T08:02:22.256Z,13.0913
2024-05-09T08:03:22.368Z,13.2147
2024-05-09T08:04:26.778Z,12.9984
2024-05-09T08:05:26.753Z,12.7809
2024-05-09T08:06:30.087Z,12.7006
2024-05-09T08:07:33.426Z,12.8454
2024-05-09T08:08:36.621Z,12.8591
2024-05-09T08:09:39.976Z,13.1325
2024-05-09T08:10:43.502Z,13.0669
2024-05-09T08:11:43.386Z,12.9196
2024-05-09T08:12:46.592Z,13.1651
2024-05-09T08:13:49.857Z,13.0501
2024-05-09T08:14:53.270Z,13.1568
2024-05-09T08:15:56.579Z,13.1163
2024-05-09T08:16:59.810Z,13.0111
2024-05-09T08:18:03.237Z,13.2204
2024-05-09T08:19:06.682Z,13.3775
2024-05-09T08:20:11.355Z,13.0178
2024-05-09T08:21:13.120Z,13.0237
2024-05-09T08:22:12.891Z,13.1678
2024-05-09T08:23:16.095Z,12.9782
2024-05-09T08:24:19.333Z,13.1092
2024-05-09T08:25:22.618Z,13.2247
2024-05-09T08:26:25.836Z,13.1107
2024-05-09T08:27:29.136Z,13.1206
2024-05-09T08:28:32.394Z,12.9132
2024-05-09T08:29:35.604Z,12.8953
2024-05-09T08:30:38.951Z,12.8254
2024-05-09T08:31:42.276Z,12.7475
2024-05-09T08:32:45.736Z,12.7948
2024-05-09T08:33:49.092Z,12.8461
2024-05-09T08:34:52.536Z,12.8240
2024-05-09T08:35:55.806Z,12.8273
2024-05-09T08:37:03.913Z,12.8522
2024-05-09T08:38:01.342Z,12.7919
2024-05-09T08:39:04.643Z,12.7011
2024-05-09T08:40:11.133Z,12.9203
2024-05-09T08:41:10.156Z,13.1461
2024-05-09T08:42:13.396Z,13.0586
2024-05-09T08:43:16.831Z,13.0288
2024-05-09T08:44:16.612Z,13.4255
2024-05-09T08:45:16.738Z,13.3720
2024-05-09T08:46:20.129Z,13.4034
2024-05-09T08:47:20.007Z,13.5622
2024-05-09T08:48:23.510Z,13.8385
2024-05-09T08:49:23.651Z,13.7131
2024-05-09T08:50:35.457Z,13.7742
2024-05-09T08:51:29.178Z,13.8502
2024-05-09T08:52:32.434Z,13.4888
2024-05-09T08:53:35.646Z,13.5407
2024-05-09T08:54:38.909Z,13.4185
2024-05-09T08:55:43.769Z,13.4775
2024-05-09T08:56:44.043Z,13.6195
2024-05-09T08:57:47.364Z,13.9362
2024-05-09T08:58:50.542Z,13.7980
2024-05-09T08:59:53.766Z,13.6556
2024-05-09T09:00:57.123Z,13.8405
2024-05-09T09:02:00.489Z,13.7044
2024-05-09T09:03:03.819Z,13.8368
2024-05-09T09:04:07.338Z,13.6265
2024-05-09T09:05:07.241Z,13.5664
2024-05-09T09:06:10.486Z,13.5762
2024-05-09T09:07:13.847Z,13.5775
2024-05-09T09:08:17.080Z,13.5124
2024-05-09T09:09:20.368Z,13.4323
2024-05-09T09:10:29.804Z,13.3154
2024-05-09T09:11:25.723Z,13.0788
2024-05-09T09:12:28.978Z,13.2503
2024-05-09T09:13:32.217Z,13.1360
2024-05-09T09:14:35.528Z,13.1546
2024-05-09T09:15:38.740Z,13.3179
2024-05-09T09:16:41.936Z,13.3887
2024-05-09T09:17:45.198Z,13.4449
2024-05-09T09:18:48.524Z,13.6050
2024-05-09T09:19:48.469Z,13.8090
2024-05-09T09:20:51.762Z,13.8940
2024-05-09T09:21:55.018Z,13.6409
2024-05-09T09:22:58.252Z,13.3216
2024-05-09T09:24:01.612Z,13.3206
2024-05-09T09:25:04.993Z,13.5612
2024-05-09T09:26:08.303Z,13.4223
2024-05-09T09:27:11.546Z,13.3942
2024-05-09T09:28:14.956Z,13.8128
2024-05-09T09:29:18.185Z,13.7426
2024-05-09T09:30:34.005Z,13.9883
2024-05-09T09:31:23.598Z,14.1740
2024-05-09T09:32:23.598Z,14.0361
2024-05-09T09:33:40.946Z,14.0549
2024-05-09T09:34:43.301Z,14.3027
2024-05-09T09:35:45.431Z,14.6627
2024-05-09T09:36:45.584Z,14.9325
2024-05-09T09:37:47.764Z,14.6051
2024-05-09T09:38:49.835Z,14.6100
2024-05-09T09:39:51.985Z,14.8648
2024-05-09T09:40:54.204Z,14.6340
2024-05-09T09:41:56.308Z,14.6604
2024-05-09T09:42:58.506Z,14.4653
2024-05-09T09:44:00.620Z,14.4445
2024-05-09T09:45:05.460Z,14.3270
2024-05-09T09:46:03.149Z,14.3450
2024-05-09T09:47:05.290Z,14.5567
2024-05-09T09:48:07.522Z,14.3190
2024-05-09T09:49:09.645Z,14.0404
2024-05-09T09:50:14.634Z,14.3520
2024-05-09T09:51:12.368Z,14.5122
2024-05-09T09:52:14.659Z,15.0011
2024-05-09T09:53:16.809Z,14.8427
2024-05-09T09:54:18.921Z,14.9902
2024-05-09T09:55:21.096Z,14.8103
2024-05-09T09:56:23.226Z,14.9670
2024-05-09T09:57:25.349Z,15.1957
2024-05-09T09:58:27.699Z,15.3170
2024-05-09T09:59:29.784Z,15.1727
2024-05-09T10:00:33.528Z,14.9871
2024-05-09T10:01:33.797Z,15.2324
2024-05-09T10:02:35.940Z,15.5967
2024-05-09T10:03:38.341Z,15.6536
2024-05-09T10:04:38.289Z,15.4844
2024-05-09T10:05:42.097Z,15.5908
2024-05-09T10:06:41.361Z,15.4654
2024-05-09T10:07:43.472Z,15.2860
2024-05-09T10:08:45.609Z,15.5373
2024-05-09T10:09:47.768Z,15.8035
2024-05-09T10:10:50.242Z,16.0331
2024-05-09T10:11:52.360Z,15.7782
2024-05-09T10:12:51.833Z,15.8064
2024-05-09T10:13:54.034Z,16.0657
2024-05-09T10:14:56.158Z,16.0765
2024-05-09T10:15:58.415Z,15.6882
2024-05-09T10:17:00.659Z,15.9876
2024-05-09T10:18:03.095Z,15.4401
2024-05-09T10:19:05.363Z,15.3917
2024-05-09T10:20:14.657Z,15.1481
2024-05-09T10:21:08.078Z,15.5984
2024-05-09T10:22:10.344Z,15.7360
2024-05-09T10:23:12.621Z,15.7716
2024-05-09T10:24:14.702Z,15.9751
2024-05-09T10:25:16.874Z,16.3022
2024-05-09T10:26:19.112Z,16.4524
2024-05-09T10:27:21.311Z,16.0376
2024-05-09T10:28:23.546Z,16.2915
2024-05-09T10:29:25.718Z,16.3785
2024-05-09T10:30:34.082Z,16.5700
2024-05-09T10:31:28.561Z,16.9101
2024-05-09T10:32:30.745Z,16.5628
2024-05-09T10:33:33.103Z,16.2030
2024-05-09T10:34:35.414Z,16.8322
2024-05-09T10:35:37.570Z,17.3621
2024-05-09T10:36:39.873Z,16.8310
2024-05-09T10:37:42.025Z,17.0267
2024-05-09T10:38:44.138Z,17.0936
2024-05-09T10:39:46.341Z,16.8130
2024-05-09T10:40:48.447Z,16.3772
2024-05-09T10:41:50.731Z,16.0086
2024-05-09T10:42:52.900Z,15.9085
2024-05-09T10:43:55.024Z,15.9150
2024-05-09T10:44:57.120Z,15.8438
2024-05-09T10:45:59.265Z,15.5696
2024-05-09T10:47:01.401Z,15.3729
2024-05-09T10:48:03.601Z,15.5763
2024-05-09T10:49:07.875Z,15.5576
2024-05-09T10:50:15.737Z,15.5461
2024-05-09T10:51:08.249Z,15.5309
2024-05-09T10:52:10.473Z,15.6981
2024-05-09T10:53:12.582Z,15.7233
2024-05-09T10:54:14.692Z,16.0089
2024-05-09T10:55:17.079Z,16.1173
2024-05-09T10:56:19.183Z,16.2962
2024-05-09T10:57:21.343Z,16.1153
2024-05-09T10:58:23.581Z,16.0183
2024-05-09T10:59:25.689Z,16.3362
2024-05-09T11:00:33.595Z,16.4759
2024-05-09T11:01:28.758Z,15.8735
2024-05-09T11:02:31.122Z,15.8267
2024-05-09T11:03:31.117Z,16.1516
2024-05-09T11:04:33.337Z,16.7735
2024-05-09T11:05:35.528Z,16.8255
2024-05-09T11:06:37.690Z,16.9581
2024-05-09T11:07:40.025Z,16.7355
2024-05-09T11:08:42.216Z,16.1384
2024-05-09T11:09:44.451Z,16.1482
2024-05-09T11:10:46.702Z,16.5235
2024-05-09T11:11:48.879Z,16.6497
2024-05-09T11:12:51.180Z,17.4741
2024-05-09T11:13:53.263Z,17.6569
2024-05-09T11:14:55.492Z,16.7664
2024-05-09T11:15:57.603Z,16.7955
2024-05-09T11:16:58.245Z,16.5377
2024-05-09T11:18:00.583Z,16.3995
2024-05-09T11:19:02.900Z,16.6356
2024-05-09T11:20:13.298Z,16.6423
2024-05-09T11:21:05.697Z,16.2843
2024-05-09T11:22:07.925Z,16.6375
2024-05-09T11:23:10.118Z,17.2589
2024-05-09T11:24:12.194Z,18.4492
2024-05-09T11:25:14.418Z,18.4505
2024-05-09T11:26:16.541Z,17.3963
2024-05-09T11:27:18.655Z,17.7230
2024-05-09T11:28:20.903Z,17.0772
2024-05-09T11:29:23.018Z,16.8913
2024-05-09T11:30:30.115Z,17.0504
2024-05-09T11:31:25.972Z,16.9732
2024-05-09T11:32:28.327Z,16.8708
2024-05-09T11:33:30.634Z,16.4853
2024-05-09T11:34:32.901Z,16.8150
2024-05-09T11:35:35.058Z,16.7507
2024-05-09T11:36:37.207Z,16.5148
2024-05-09T11:37:39.346Z,16.7097
2024-05-09T11:38:41.473Z,16.9178
2024-05-09T11:39:43.612Z,16.5570
2024-05-09T11:40:45.728Z,17.1703
2024-05-09T11:41:47.861Z,16.9992
2024-05-09T11:42:52.498Z,16.9972
2024-05-09T11:43:50.180Z,17.4670
2024-05-09T11:44:52.287Z,17.6129
2024-05-09T11:45:54.431Z,17.5372
2024-05-09T11:46:56.508Z,17.8993
2024-05-09T11:47:58.846Z,17.8625
2024-05-09T11:49:01.110Z,17.5810
2024-05-09T11:50:04.365Z,17.2763
2024-05-09T11:51:04.765Z,16.7381
2024-05-09T11:52:06.909Z,16.9179
2024-05-09T11:53:09.049Z,17.4038
2024-05-09T11:54:11.126Z,17.2961
2024-05-09T11:55:13.320Z,17.1383
2024-05-09T11:56:15.432Z,17.0808
2024-05-09T11:57:17.522Z,16.6771
2024-05-09T11:58:19.854Z,16.4187
2024-05-09T11:59:22.118Z,16.7603
2024-05-09T12:00:33.754Z,16.6325
2024-05-09T12:01:27.510Z,16.2385
2024-05-09T12:02:25.079Z,16.8586
2024-05-09T12:03:27.352Z,16.8195
2024-05-09T12:04:29.581Z,17.0772
2024-05-09T12:05:32.035Z,16.4617
2024-05-09T12:06:31.899Z,16.9135
2024-05-09T12:07:34.037Z,16.7426
2024-05-09T12:08:36.152Z,17.0518
2024-05-09T12:09:38.401Z,17.0447
2024-05-09T12:10:40.769Z,17.4744
2024-05-09T12:11:40.525Z,18.1744
2024-05-09T12:12:42.642Z,18.0770
2024-05-09T12:13:44.791Z,17.5230
2024-05-09T12:14:46.901Z,17.5993
2024-05-09T12:15:49.044Z,16.9907
2024-05-09T12:16:51.275Z,17.2161
2024-05-09T12:17:53.573Z,17.3046
2024-05-09T12:18:55.984Z,17.7723
2024-05-09T12:19:58.182Z,17.2950
2024-05-09T12:21:00.305Z,17.9003
2024-05-09T12:22:02.466Z,18.0489
2024-05-09T12:23:04.613Z,18.0022
2024-05-09T12:24:06.687Z,18.0851
2024-05-09T12:25:08.898Z,17.7929
2024-05-09T12:26:11.075Z,18.2837
2024-05-09T12:27:11.140Z,18.3775
2024-05-09T12:28:13.314Z,18.1577
2024-05-09T12:29:15.451Z,18.2034
2024-05-09T12:30:29.034Z,18.1179
2024-05-09T12:31:18.214Z,19.1345
2024-05-09T12:32:20.432Z,18.2972
2024-05-09T12:33:22.674Z,18.3760
2024-05-09T12:34:24.782Z,18.2200
2024-05-09T12:35:26.895Z,18.1458
2024-05-09T12:36:27.557Z,18.3207
2024-05-09T12:37:29.719Z,18.6355
2024-05-09T12:38:31.838Z,19.1100
2024-05-09T12:39:33.988Z,19.2394
2024-05-09T12:40:38.319Z,18.6224
2024-05-09T12:41:36.525Z,18.1916